sensor_id;sensor_type;location;lat;lon;timestamp;temperature;humidity
31369;DHT22;18004;48.416;10.066;2024-02-21T00:02:21;4.60;99.90
31369;DHT22;18004;48.416;10.066;2024-02-21T00:04:46;4.50;99.90
31369;DHT22;18004;48.416;10.066;2024-02-21T00:07:12;4.50;99.90
31369;DHT22;18004;48.416;10.066;2024-02-21T00:09:38;4.60;99.90
31369;DHT22;18004;48.416;10.066;2024-02-21T00:12:04;4.60;99.90
31369;DHT22;18004;48.416;10.066;2024-02-21T00:14:30;4.60;99.90
31369;DHT22;18004;48.416;10.066;2024-02-21T00:16:56;4.60;99.90
31369;DHT22;18004;48.416;10.066;2024-02-21T00:19:22;4.70;99.90
31369;DHT22;18004;48.416;10.066;2024-02-21T00:21:48;4.70;99.90
31369;DHT22;18004;48.416;10.066;2024-02-21T00:24:13;4.70;99.90
31369;DHT22;18004;48.416;10.066;2024-02-21T00:26:39;4.70;99.90
31369;DHT22;18004;48.416;10.066;2024-02-21T00:29:05;4.70;99.90
31369;DHT22;18004;48.416;10.066;2024-02-21T00:31:31;4.80;99.90
31369;DHT22;18004;48.416;10.066;2024-02-21T00:33:57;4.70;99.90
31369;DHT22;18004;48.416;10.066;2024-02-21T00:36:23;4.70;99.90
31369;DHT22;18004;48.416;10.066;2024-02-21T00:38:49;4.70;99.90
31369;DHT22;18004;48.416;10.066;2024-02-21T00:41:15;4.80;99.90
31369;DHT22;18004;48.416;10.066;2024-02-21T00:43:41;4.80;99.90
31369;DHT22;18004;48.416;10.066;2024-02-21T00:46:07;4.70;99.90
31369;DHT22;18004;48.416;10.066;2024-02-21T00:48:33;4.70;99.90
31369;DHT22;18004;48.416;10.066;2024-02-21T00:50:59;4.70;99.90
31369;DHT22;18004;48.416;10.066;2024-02-21T00:53:25;4.70;99.90
31369;DHT22;18004;48.416;10.066;2024-02-21T00:55:51;4.70;99.90
31369;DHT22;18004;48.416;10.066;2024-02-21T00:58:17;4.60;99.90
31369;DHT22;18004;48.416;10.066;2024-02-21T01:00:42;4.60;99.90
31369;DHT22;18004;48.416;10.066;2024-02-21T01:03:08;4.50;99.90
31369;DHT22;18004;48.416;10.066;2024-02-21T01:05:34;4.50;99.90
31369;DHT22;18004;48.416;10.066;2024-02-21T01:08:00;4.40;99.90
31369;DHT22;18004;48.416;10.066;2024-02-21T01:10:25;4.40;99.90
31369;DHT22;18004;48.416;10.066;2024-02-21T01:12:51;4.40;99.90
31369;DHT22;18004;48.416;10.066;2024-02-21T01:15:17;4.40;99.90
31369;DHT22;18004;48.416;10.066;2024-02-21T01:17:42;4.30;99.90
31369;DHT22;18004;48.416;10.066;2024-02-21T01:20:08;4.30;99.90
31369;DHT22;18004;48.416;10.066;2024-02-21T01:22:34;4.30;99.90
31369;DHT22;18004;48.416;10.066;2024-02-21T01:25:00;4.30;99.90
31369;DHT22;18004;48.416;10.066;2024-02-21T01:27:26;4.30;99.90
31369;DHT22;18004;48.416;10.066;2024-02-21T01:29:52;4.30;99.90
31369;DHT22;18004;48.416;10.066;2024-02-21T01:32:17;4.30;99.90
31369;DHT22;18004;48.416;10.066;2024-02-21T01:34:43;4.30;99.90
31369;DHT22;18004;48.416;10.066;2024-02-21T01:37:09;4.30;99.90
31369;DHT22;18004;48.416;10.066;2024-02-21T01:39:35;4.30;99.90
31369;DHT22;18004;48.416;10.066;2024-02-21T01:42:01;4.30;99.90
31369;DHT22;18004;48.416;10.066;2024-02-21T01:44:26;4.30;99.90
31369;DHT22;18004;48.416;10.066;2024-02-21T01:46:53;4.30;99.90
31369;DHT22;18004;48.416;10.066;2024-02-21T01:49:19;4.20;99.90
31369;DHT22;18004;48.416;10.066;2024-02-21T01:51:46;4.30;99.90
31369;DHT22;18004;48.416;10.066;2024-02-21T01:54:14;4.30;99.90
31369;DHT22;18004;48.416;10.066;2024-02-21T01:56:41;4.30;99.90
31369;DHT22;18004;48.416;10.066;2024-02-21T01:59:07;4.30;99.90
31369;DHT22;18004;48.416;10.066;2024-02-21T02:01:33;4.30;99.90
31369;DHT22;18004;48.416;10.066;2024-02-21T02:03:59;4.20;99.90
31369;DHT22;18004;48.416;10.066;2024-02-21T02:06:25;4.20;99.90
31369;DHT22;18004;48.416;10.066;2024-02-21T02:08:51;4.30;99.90
31369;DHT22;18004;48.416;10.066;2024-02-21T02:11:17;4.30;99.90
31369;DHT22;18004;48.416;10.066;2024-02-21T02:13:43;4.30;99.90
31369;DHT22;18004;48.416;10.066;2024-02-21T02:16:09;4.20;99.90
31369;DHT22;18004;48.416;10.066;2024-02-21T02:18:35;4.20;99.90
31369;DHT22;18004;48.416;10.066;2024-02-21T02:21:01;4.20;99.90
31369;DHT22;18004;48.416;10.066;2024-02-21T02:23:30;4.10;99.90
31369;DHT22;18004;48.416;10.066;2024-02-21T02:25:59;4.10;99.90
31369;DHT22;18004;48.416;10.066;2024-02-21T02:28:24;4.10;99.90
31369;DHT22;18004;48.416;10.066;2024-02-21T02:30:50;4.10;99.90
31369;DHT22;18004;48.416;10.066;2024-02-21T02:33:16;4.00;99.90
31369;DHT22;18004;48.416;10.066;2024-02-21T02:35:45;4.10;99.90
31369;DHT22;18004;48.416;10.066;2024-02-21T02:38:12;4.20;99.90
31369;DHT22;18004;48.416;10.066;2024-02-21T02:40:39;4.20;99.90
31369;DHT22;18004;48.416;10.066;2024-02-21T02:43:06;4.20;99.90
31369;DHT22;18004;48.416;10.066;2024-02-21T02:45:32;4.20;99.90
31369;DHT22;18004;48.416;10.066;2024-02-21T02:47:58;4.20;99.90
31369;DHT22;18004;48.416;10.066;2024-02-21T02:50:25;4.10;99.90
31369;DHT22;18004;48.416;10.066;2024-02-21T02:52:52;4.10;99.90
31369;DHT22;18004;48.416;10.066;2024-02-21T02:55:18;4.10;99.90
31369;DHT22;18004;48.416;10.066;2024-02-21T02:57:43;4.20;99.90
31369;DHT22;18004;48.416;10.066;2024-02-21T03:00:13;4.20;99.90
31369;DHT22;18004;48.416;10.066;2024-02-21T03:02:43;4.10;99.90
31369;DHT22;18004;48.416;10.066;2024-02-21T03:05:14;4.10;99.90
31369;DHT22;18004;48.416;10.066;2024-02-21T03:07:41;4.10;99.90
31369;DHT22;18004;48.416;10.066;2024-02-21T03:10:07;4.10;99.90
31369;DHT22;18004;48.416;10.066;2024-02-21T03:12:33;4.20;99.90
31369;DHT22;18004;48.416;10.066;2024-02-21T03:14:58;4.20;99.90
31369;DHT22;18004;48.416;10.066;2024-02-21T03:17:25;4.20;99.90
31369;DHT22;18004;48.416;10.066;2024-02-21T03:19:52;4.20;99.90
31369;DHT22;18004;48.416;10.066;2024-02-21T03:22:18;4.20;99.90
31369;DHT22;18004;48.416;10.066;2024-02-21T03:24:44;4.10;99.90
31369;DHT22;18004;48.416;10.066;2024-02-21T03:27:10;4.10;99.90
31369;DHT22;18004;48.416;10.066;2024-02-21T03:29:36;4.10;99.90
31369;DHT22;18004;48.416;10.066;2024-02-21T03:32:02;4.10;99.90
31369;DHT22;18004;48.416;10.066;2024-02-21T03:34:27;4.10;99.90
31369;DHT22;18004;48.416;10.066;2024-02-21T03:36:53;4.20;99.90
31369;DHT22;18004;48.416;10.066;2024-02-21T03:39:19;4.20;99.90
31369;DHT22;18004;48.416;10.066;2024-02-21T03:41:45;4.20;99.90
31369;DHT22;18004;48.416;10.066;2024-02-21T03:44:11;4.20;99.90
31369;DHT22;18004;48.416;10.066;2024-02-21T03:46:37;4.20;99.90
31369;DHT22;18004;48.416;10.066;2024-02-21T03:49:02;4.20;99.90
31369;DHT22;18004;48.416;10.066;2024-02-21T03:51:28;4.20;99.90
31369;DHT22;18004;48.416;10.066;2024-02-21T03:53:54;4.20;99.90
31369;DHT22;18004;48.416;10.066;2024-02-21T03:56:20;4.20;99.90
31369;DHT22;18004;48.416;10.066;2024-02-21T03:58:45;4.20;99.90
31369;DHT22;18004;48.416;10.066;2024-02-21T04:01:11;4.10;99.90
31369;DHT22;18004;48.416;10.066;2024-02-21T04:03:37;4.20;99.90
31369;DHT22;18004;48.416;10.066;2024-02-21T04:06:03;4.20;99.90
31369;DHT22;18004;48.416;10.066;2024-02-21T04:08:29;4.20;99.90
31369;DHT22;18004;48.416;10.066;2024-02-21T04:10:55;4.30;99.90
31369;DHT22;18004;48.416;10.066;2024-02-21T04:13:21;4.30;99.90
31369;DHT22;18004;48.416;10.066;2024-02-21T04:15:48;4.30;99.90
31369;DHT22;18004;48.416;10.066;2024-02-21T04:18:14;4.30;99.90
31369;DHT22;18004;48.416;10.066;2024-02-21T04:20:40;4.30;99.90
31369;DHT22;18004;48.416;10.066;2024-02-21T04:23:06;4.30;99.90
31369;DHT22;18004;48.416;10.066;2024-02-21T04:25:32;4.30;99.90
31369;DHT22;18004;48.416;10.066;2024-02-21T04:27:57;4.20;99.90
31369;DHT22;18004;48.416;10.066;2024-02-21T04:30:23;4.30;99.90
31369;DHT22;18004;48.416;10.066;2024-02-21T04:32:49;4.30;99.90
31369;DHT22;18004;48.416;10.066;2024-02-21T04:35:14;4.30;99.90
31369;DHT22;18004;48.416;10.066;2024-02-21T04:37:40;4.30;99.90
31369;DHT22;18004;48.416;10.066;2024-02-21T04:40:06;4.30;99.90
31369;DHT22;18004;48.416;10.066;2024-02-21T04:42:32;4.30;99.90
31369;DHT22;18004;48.416;10.066;2024-02-21T04:44:59;4.30;99.90
31369;DHT22;18004;48.416;10.066;2024-02-21T04:47:25;4.30;99.90
31369;DHT22;18004;48.416;10.066;2024-02-21T04:49:52;4.30;99.90
31369;DHT22;18004;48.416;10.066;2024-02-21T04:52:17;4.30;99.90
31369;DHT22;18004;48.416;10.066;2024-02-21T04:54:43;4.40;99.90
31369;DHT22;18004;48.416;10.066;2024-02-21T04:57:09;4.40;99.90
31369;DHT22;18004;48.416;10.066;2024-02-21T04:59:36;4.40;99.90
31369;DHT22;18004;48.416;10.066;2024-02-21T05:02:02;4.40;99.90
31369;DHT22;18004;48.416;10.066;2024-02-21T05:04:28;4.40;99.90
31369;DHT22;18004;48.416;10.066;2024-02-21T05:06:54;4.40;99.90
31369;DHT22;18004;48.416;10.066;2024-02-21T05:09:20;4.40;99.90
31369;DHT22;18004;48.416;10.066;2024-02-21T05:11:46;4.40;99.90
31369;DHT22;18004;48.416;10.066;2024-02-21T05:14:13;4.30;99.90
31369;DHT22;18004;48.416;10.066;2024-02-21T05:16:39;4.40;99.90
31369;DHT22;18004;48.416;10.066;2024-02-21T05:19:05;4.30;99.90
31369;DHT22;18004;48.416;10.066;2024-02-21T05:21:31;4.30;99.90
31369;DHT22;18004;48.416;10.066;2024-02-21T05:23:57;4.30;99.90
31369;DHT22;18004;48.416;10.066;2024-02-21T05:26:24;4.30;99.90
31369;DHT22;18004;48.416;10.066;2024-02-21T05:28:50;4.30;99.90
31369;DHT22;18004;48.416;10.066;2024-02-21T05:31:17;4.20;99.90
31369;DHT22;18004;48.416;10.066;2024-02-21T05:33:44;4.10;99.90
31369;DHT22;18004;48.416;10.066;2024-02-21T05:36:10;4.10;99.90
31369;DHT22;18004;48.416;10.066;2024-02-21T05:38:36;4.10;99.90
31369;DHT22;18004;48.416;10.066;2024-02-21T05:41:03;4.10;99.90
31369;DHT22;18004;48.416;10.066;2024-02-21T05:43:29;4.10;99.90
31369;DHT22;18004;48.416;10.066;2024-02-21T05:45:54;4.10;99.90
31369;DHT22;18004;48.416;10.066;2024-02-21T05:48:21;4.20;99.90
31369;DHT22;18004;48.416;10.066;2024-02-21T05:50:47;4.20;99.90
31369;DHT22;18004;48.416;10.066;2024-02-21T05:53:13;4.20;99.90
31369;DHT22;18004;48.416;10.066;2024-02-21T05:55:39;4.20;99.90
31369;DHT22;18004;48.416;10.066;2024-02-21T05:58:05;4.20;99.90
31369;DHT22;18004;48.416;10.066;2024-02-21T06:00:32;4.20;99.90
31369;DHT22;18004;48.416;10.066;2024-02-21T06:02:58;4.10;99.90
31369;DHT22;18004;48.416;10.066;2024-02-21T06:05:24;4.10;99.90
31369;DHT22;18004;48.416;10.066;2024-02-21T06:07:50;4.00;99.90
31369;DHT22;18004;48.416;10.066;2024-02-21T06:10:16;3.90;99.90
31369;DHT22;18004;48.416;10.066;2024-02-21T06:12:42;3.90;99.90
31369;DHT22;18004;48.416;10.066;2024-02-21T06:15:08;3.90;99.90
31369;DHT22;18004;48.416;10.066;2024-02-21T06:17:34;3.90;99.90
31369;DHT22;18004;48.416;10.066;2024-02-21T06:20:00;3.90;99.90
31369;DHT22;18004;48.416;10.066;2024-02-21T06:22:25;3.90;99.90
31369;DHT22;18004;48.416;10.066;2024-02-21T06:24:51;3.90;99.90
31369;DHT22;18004;48.416;10.066;2024-02-21T06:27:19;3.90;99.90
31369;DHT22;18004;48.416;10.066;2024-02-21T06:29:45;3.90;99.90
31369;DHT22;18004;48.416;10.066;2024-02-21T06:32:11;3.90;99.90
31369;DHT22;18004;48.416;10.066;2024-02-21T06:34:37;3.80;99.90
31369;DHT22;18004;48.416;10.066;2024-02-21T06:37:02;3.80;99.90
31369;DHT22;18004;48.416;10.066;2024-02-21T06:39:29;3.80;99.90
31369;DHT22;18004;48.416;10.066;2024-02-21T06:41:55;3.70;99.90
31369;DHT22;18004;48.416;10.066;2024-02-21T06:44:21;3.70;99.90
31369;DHT22;18004;48.416;10.066;2024-02-21T06:46:47;3.70;99.90
31369;DHT22;18004;48.416;10.066;2024-02-21T06:49:13;3.80;99.90
31369;DHT22;18004;48.416;10.066;2024-02-21T06:51:44;3.80;99.90
31369;DHT22;18004;48.416;10.066;2024-02-21T06:54:10;3.80;99.90
31369;DHT22;18004;48.416;10.066;2024-02-21T06:56:37;3.80;99.90
31369;DHT22;18004;48.416;10.066;2024-02-21T06:59:03;3.80;99.90
31369;DHT22;18004;48.416;10.066;2024-02-21T07:01:29;3.80;99.90
31369;DHT22;18004;48.416;10.066;2024-02-21T07:03:56;3.80;99.90
31369;DHT22;18004;48.416;10.066;2024-02-21T07:06:22;3.80;99.90
31369;DHT22;18004;48.416;10.066;2024-02-21T07:08:48;3.80;99.90
31369;DHT22;18004;48.416;10.066;2024-02-21T07:11:13;3.90;99.90
31369;DHT22;18004;48.416;10.066;2024-02-21T07:13:39;3.90;99.90
31369;DHT22;18004;48.416;10.066;2024-02-21T07:16:06;4.00;99.90
31369;DHT22;18004;48.416;10.066;2024-02-21T07:18:31;3.90;99.90
31369;DHT22;18004;48.416;10.066;2024-02-21T07:20:57;4.00;99.90
31369;DHT22;18004;48.416;10.066;2024-02-21T07:23:24;4.10;99.90
31369;DHT22;18004;48.416;10.066;2024-02-21T07:25:50;4.10;99.90
31369;DHT22;18004;48.416;10.066;2024-02-21T07:28:15;4.20;99.90
31369;DHT22;18004;48.416;10.066;2024-02-21T07:30:42;4.20;99.90
31369;DHT22;18004;48.416;10.066;2024-02-21T07:33:08;4.30;99.90
31369;DHT22;18004;48.416;10.066;2024-02-21T07:35:34;4.30;99.90
31369;DHT22;18004;48.416;10.066;2024-02-21T07:38:00;4.40;99.90
31369;DHT22;18004;48.416;10.066;2024-02-21T07:40:25;4.40;99.90
31369;DHT22;18004;48.416;10.066;2024-02-21T07:42:51;4.60;99.90
31369;DHT22;18004;48.416;10.066;2024-02-21T07:45:17;4.60;99.90
31369;DHT22;18004;48.416;10.066;2024-02-21T07:47:43;4.80;99.90
31369;DHT22;18004;48.416;10.066;2024-02-21T07:50:09;4.80;99.90
31369;DHT22;18004;48.416;10.066;2024-02-21T07:52:35;4.90;99.90
31369;DHT22;18004;48.416;10.066;2024-02-21T07:55:01;5.00;99.90
31369;DHT22;18004;48.416;10.066;2024-02-21T07:57:27;5.00;99.90
31369;DHT22;18004;48.416;10.066;2024-02-21T07:59:53;5.10;99.90
31369;DHT22;18004;48.416;10.066;2024-02-21T08:02:19;5.20;99.90
31369;DHT22;18004;48.416;10.066;2024-02-21T08:04:45;5.30;99.90
31369;DHT22;18004;48.416;10.066;2024-02-21T08:07:11;5.40;99.90
31369;DHT22;18004;48.416;10.066;2024-02-21T08:09:39;5.60;99.90
31369;DHT22;18004;48.416;10.066;2024-02-21T08:12:05;5.60;99.90
31369;DHT22;18004;48.416;10.066;2024-02-21T08:14:31;5.70;99.90
31369;DHT22;18004;48.416;10.066;2024-02-21T08:16:56;5.80;99.90
31369;DHT22;18004;48.416;10.066;2024-02-21T08:19:22;5.90;99.90
31369;DHT22;18004;48.416;10.066;2024-02-21T08:21:48;6.00;99.90
31369;DHT22;18004;48.416;10.066;2024-02-21T08:24:14;6.10;99.90
31369;DHT22;18004;48.416;10.066;2024-02-21T08:26:44;6.20;99.90
31369;DHT22;18004;48.416;10.066;2024-02-21T08:29:13;6.30;99.90
31369;DHT22;18004;48.416;10.066;2024-02-21T08:31:39;6.30;99.90
31369;DHT22;18004;48.416;10.066;2024-02-21T08:34:05;6.40;99.90
31369;DHT22;18004;48.416;10.066;2024-02-21T08:36:34;6.50;99.90
31369;DHT22;18004;48.416;10.066;2024-02-21T08:39:01;6.50;99.90
31369;DHT22;18004;48.416;10.066;2024-02-21T08:41:30;6.50;99.90
31369;DHT22;18004;48.416;10.066;2024-02-21T08:43:57;6.60;99.90
31369;DHT22;18004;48.416;10.066;2024-02-21T08:46:26;6.70;99.90
31369;DHT22;18004;48.416;10.066;2024-02-21T08:48:55;6.70;99.90
31369;DHT22;18004;48.416;10.066;2024-02-21T08:51:21;6.70;99.90
31369;DHT22;18004;48.416;10.066;2024-02-21T08:53:47;6.70;99.90
31369;DHT22;18004;48.416;10.066;2024-02-21T08:56:13;6.60;99.90
31369;DHT22;18004;48.416;10.066;2024-02-21T08:58:40;6.70;99.90
31369;DHT22;18004;48.416;10.066;2024-02-21T09:01:06;6.70;99.90
31369;DHT22;18004;48.416;10.066;2024-02-21T09:03:36;6.80;99.90
31369;DHT22;18004;48.416;10.066;2024-02-21T09:06:06;6.90;99.90
31369;DHT22;18004;48.416;10.066;2024-02-21T09:08:33;7.00;99.90
31369;DHT22;18004;48.416;10.066;2024-02-21T09:10:59;7.00;99.90
31369;DHT22;18004;48.416;10.066;2024-02-21T09:13:25;7.10;99.90
31369;DHT22;18004;48.416;10.066;2024-02-21T09:15:51;7.10;99.90
31369;DHT22;18004;48.416;10.066;2024-02-21T09:18:17;7.20;99.90
31369;DHT22;18004;48.416;10.066;2024-02-21T09:20:43;7.20;99.90
31369;DHT22;18004;48.416;10.066;2024-02-21T09:23:09;7.20;99.90
31369;DHT22;18004;48.416;10.066;2024-02-21T09:25:35;7.20;99.90
31369;DHT22;18004;48.416;10.066;2024-02-21T09:28:04;7.10;99.90
31369;DHT22;18004;48.416;10.066;2024-02-21T09:30:32;7.20;99.90
31369;DHT22;18004;48.416;10.066;2024-02-21T09:32:58;7.30;99.90
31369;DHT22;18004;48.416;10.066;2024-02-21T09:35:28;7.30;99.90
31369;DHT22;18004;48.416;10.066;2024-02-21T09:37:54;7.40;99.90
31369;DHT22;18004;48.416;10.066;2024-02-21T09:40:20;7.50;99.90
31369;DHT22;18004;48.416;10.066;2024-02-21T09:42:47;7.60;99.90
31369;DHT22;18004;48.416;10.066;2024-02-21T09:48:15;7.60;99.90
31369;DHT22;18004;48.416;10.066;2024-02-21T09:50:38;7.70;99.90
31369;DHT22;18004;48.416;10.066;2024-02-21T09:53:06;7.70;99.90
31369;DHT22;18004;48.416;10.066;2024-02-21T09:55:36;7.70;99.90
31369;DHT22;18004;48.416;10.066;2024-02-21T09:58:05;7.80;99.90
31369;DHT22;18004;48.416;10.066;2024-02-21T10:00:31;7.90;99.90
31369;DHT22;18004;48.416;10.066;2024-02-21T10:02:58;8.00;99.90
31369;DHT22;18004;48.416;10.066;2024-02-21T10:05:24;8.00;99.90
31369;DHT22;18004;48.416;10.066;2024-02-21T10:07:51;8.00;99.90
31369;DHT22;18004;48.416;10.066;2024-02-21T10:10:17;7.90;99.90
31369;DHT22;18004;48.416;10.066;2024-02-21T10:12:51;8.00;99.90
31369;DHT22;18004;48.416;10.066;2024-02-21T10:15:21;8.10;99.90
31369;DHT22;18004;48.416;10.066;2024-02-21T10:17:48;8.10;99.90
31369;DHT22;18004;48.416;10.066;2024-02-21T10:20:14;8.10;99.90
31369;DHT22;18004;48.416;10.066;2024-02-21T10:22:40;8.20;99.90
31369;DHT22;18004;48.416;10.066;2024-02-21T10:25:10;8.30;99.90
31369;DHT22;18004;48.416;10.066;2024-02-21T10:27:39;8.40;99.90
31369;DHT22;18004;48.416;10.066;2024-02-21T10:30:12;8.50;99.90
31369;DHT22;18004;48.416;10.066;2024-02-21T10:32:52;8.60;99.90
31369;DHT22;18004;48.416;10.066;2024-02-21T10:35:32;8.80;99.90
31369;DHT22;18004;48.416;10.066;2024-02-21T10:37:59;8.90;99.90
31369;DHT22;18004;48.416;10.066;2024-02-21T10:40:26;8.90;99.90
31369;DHT22;18004;48.416;10.066;2024-02-21T10:43:02;9.00;99.90
31369;DHT22;18004;48.416;10.066;2024-02-21T10:45:34;9.10;99.90
31369;DHT22;18004;48.416;10.066;2024-02-21T10:48:11;9.20;99.90
31369;DHT22;18004;48.416;10.066;2024-02-21T10:53:29;9.40;99.90
31369;DHT22;18004;48.416;10.066;2024-02-21T10:58:46;9.30;99.90
31369;DHT22;18004;48.416;10.066;2024-02-21T11:01:12;9.40;99.90
31369;DHT22;18004;48.416;10.066;2024-02-21T11:03:42;9.50;99.90
31369;DHT22;18004;48.416;10.066;2024-02-21T11:06:11;9.60;99.90
31369;DHT22;18004;48.416;10.066;2024-02-21T11:08:37;9.80;99.90
31369;DHT22;18004;48.416;10.066;2024-02-21T11:11:05;9.70;99.50
31369;DHT22;18004;48.416;10.066;2024-02-21T11:13:31;9.80;98.30
31369;DHT22;18004;48.416;10.066;2024-02-21T11:16:11;9.80;94.00
31369;DHT22;18004;48.416;10.066;2024-02-21T11:18:38;9.80;97.20
31369;DHT22;18004;48.416;10.066;2024-02-21T11:21:04;9.80;95.00
31369;DHT22;18004;48.416;10.066;2024-02-21T11:23:33;9.90;92.40
31369;DHT22;18004;48.416;10.066;2024-02-21T11:26:09;9.90;94.20
31369;DHT22;18004;48.416;10.066;2024-02-21T11:28:35;10.00;92.30
31369;DHT22;18004;48.416;10.066;2024-02-21T11:31:12;10.00;77.90
31369;DHT22;18004;48.416;10.066;2024-02-21T11:33:42;10.10;89.30
31369;DHT22;18004;48.416;10.066;2024-02-21T11:36:26;10.20;78.10
31369;DHT22;18004;48.416;10.066;2024-02-21T11:38:52;10.20;74.90
31369;DHT22;18004;48.416;10.066;2024-02-21T11:41:21;10.20;74.90
31369;DHT22;18004;48.416;10.066;2024-02-21T11:43:49;10.20;69.40
31369;DHT22;18004;48.416;10.066;2024-02-21T11:46:16;10.10;75.80
31369;DHT22;18004;48.416;10.066;2024-02-21T11:48:42;10.30;77.50
31369;DHT22;18004;48.416;10.066;2024-02-21T11:51:21;10.30;71.90
31369;DHT22;18004;48.416;10.066;2024-02-21T11:53:47;10.30;75.80
31369;DHT22;18004;48.416;10.066;2024-02-21T11:56:14;10.30;74.10
31369;DHT22;18004;48.416;10.066;2024-02-21T11:58:39;10.40;74.10
31369;DHT22;18004;48.416;10.066;2024-02-21T12:01:05;10.40;74.80
31369;DHT22;18004;48.416;10.066;2024-02-21T12:03:32;10.40;74.00
31369;DHT22;18004;48.416;10.066;2024-02-21T12:06:01;10.40;78.30
31369;DHT22;18004;48.416;10.066;2024-02-21T12:08:41;10.40;81.60
31369;DHT22;18004;48.416;10.066;2024-02-21T12:11:23;10.50;83.30
31369;DHT22;18004;48.416;10.066;2024-02-21T12:14:00;10.50;80.50
31369;DHT22;18004;48.416;10.066;2024-02-21T12:16:27;10.50;81.60
31369;DHT22;18004;48.416;10.066;2024-02-21T12:18:55;10.60;74.90
31369;DHT22;18004;48.416;10.066;2024-02-21T12:21:27;10.60;68.10
31369;DHT22;18004;48.416;10.066;2024-02-21T12:23:55;10.60;69.60
31369;DHT22;18004;48.416;10.066;2024-02-21T12:26:22;10.60;68.00
31369;DHT22;18004;48.416;10.066;2024-02-21T12:28:48;10.60;64.10
31369;DHT22;18004;48.416;10.066;2024-02-21T12:31:14;10.60;63.30
31369;DHT22;18004;48.416;10.066;2024-02-21T12:33:42;10.70;65.80
31369;DHT22;18004;48.416;10.066;2024-02-21T12:36:08;10.70;63.80
31369;DHT22;18004;48.416;10.066;2024-02-21T12:38:35;10.80;67.00
31369;DHT22;18004;48.416;10.066;2024-02-21T12:41:01;10.90;68.30
31369;DHT22;18004;48.416;10.066;2024-02-21T12:43:27;10.90;64.40
31369;DHT22;18004;48.416;10.066;2024-02-21T12:45:53;10.80;67.10
31369;DHT22;18004;48.416;10.066;2024-02-21T12:48:18;10.90;71.70
31369;DHT22;18004;48.416;10.066;2024-02-21T12:50:51;11.00;69.00
31369;DHT22;18004;48.416;10.066;2024-02-21T12:53:18;11.10;65.10
31369;DHT22;18004;48.416;10.066;2024-02-21T12:55:47;11.20;48.00
31369;DHT22;18004;48.416;10.066;2024-02-21T12:58:14;11.30;53.40
31369;DHT22;18004;48.416;10.066;2024-02-21T13:00:40;11.40;47.80
31369;DHT22;18004;48.416;10.066;2024-02-21T13:03:06;11.50;39.10
31369;DHT22;18004;48.416;10.066;2024-02-21T13:05:32;11.50;31.40
31369;DHT22;18004;48.416;10.066;2024-02-21T13:08:00;11.60;38.50
31369;DHT22;18004;48.416;10.066;2024-02-21T13:10:26;11.60;32.60
31369;DHT22;18004;48.416;10.066;2024-02-21T13:12:52;11.60;29.60
31369;DHT22;18004;48.416;10.066;2024-02-21T13:15:18;11.70;31.70
31369;DHT22;18004;48.416;10.066;2024-02-21T13:17:44;11.80;31.70
31369;DHT22;18004;48.416;10.066;2024-02-21T13:20:10;11.90;31.90
31369;DHT22;18004;48.416;10.066;2024-02-21T13:22:36;11.90;29.00
31369;DHT22;18004;48.416;10.066;2024-02-21T13:25:03;11.90;24.60
31369;DHT22;18004;48.416;10.066;2024-02-21T13:27:29;11.80;21.70
31369;DHT22;18004;48.416;10.066;2024-02-21T13:29:55;11.80;22.50
31369;DHT22;18004;48.416;10.066;2024-02-21T13:32:20;11.80;20.60
31369;DHT22;18004;48.416;10.066;2024-02-21T13:34:46;11.80;20.90
31369;DHT22;18004;48.416;10.066;2024-02-21T13:37:12;11.70;19.10
31369;DHT22;18004;48.416;10.066;2024-02-21T13:39:39;11.70;20.90
31369;DHT22;18004;48.416;10.066;2024-02-21T13:42:05;11.70;21.60
31369;DHT22;18004;48.416;10.066;2024-02-21T13:44:32;11.80;24.20
31369;DHT22;18004;48.416;10.066;2024-02-21T13:46:58;11.70;21.40
31369;DHT22;18004;48.416;10.066;2024-02-21T13:49:23;11.70;24.30
31369;DHT22;18004;48.416;10.066;2024-02-21T13:51:49;11.80;24.10
31369;DHT22;18004;48.416;10.066;2024-02-21T13:54:15;11.80;22.80
31369;DHT22;18004;48.416;10.066;2024-02-21T13:56:45;11.70;22.10
31369;DHT22;18004;48.416;10.066;2024-02-21T13:59:12;11.70;20.50
31369;DHT22;18004;48.416;10.066;2024-02-21T14:01:39;11.60;20.20
31369;DHT22;18004;48.416;10.066;2024-02-21T14:04:05;11.60;21.90
31369;DHT22;18004;48.416;10.066;2024-02-21T14:06:30;11.60;20.40
31369;DHT22;18004;48.416;10.066;2024-02-21T14:08:56;11.60;22.40
31369;DHT22;18004;48.416;10.066;2024-02-21T14:11:22;11.60;22.30
31369;DHT22;18004;48.416;10.066;2024-02-21T14:13:48;11.60;23.30
31369;DHT22;18004;48.416;10.066;2024-02-21T14:16:14;11.60;21.90
31369;DHT22;18004;48.416;10.066;2024-02-21T14:18:40;11.70;21.40
31369;DHT22;18004;48.416;10.066;2024-02-21T14:21:08;11.70;21.70
31369;DHT22;18004;48.416;10.066;2024-02-21T14:23:37;11.70;22.60
31369;DHT22;18004;48.416;10.066;2024-02-21T14:26:03;11.60;22.80
31369;DHT22;18004;48.416;10.066;2024-02-21T14:28:29;11.60;23.70
31369;DHT22;18004;48.416;10.066;2024-02-21T14:31:03;11.60;23.40
31369;DHT22;18004;48.416;10.066;2024-02-21T14:33:31;11.60;19.10
31369;DHT22;18004;48.416;10.066;2024-02-21T14:36:00;11.50;19.00
31369;DHT22;18004;48.416;10.066;2024-02-21T14:38:28;11.40;18.60
31369;DHT22;18004;48.416;10.066;2024-02-21T14:40:55;11.50;18.00
31369;DHT22;18004;48.416;10.066;2024-02-21T14:43:24;11.50;19.20
31369;DHT22;18004;48.416;10.066;2024-02-21T14:45:52;11.40;19.80
31369;DHT22;18004;48.416;10.066;2024-02-21T14:48:20;11.40;20.80
31369;DHT22;18004;48.416;10.066;2024-02-21T14:50:47;11.50;20.60
31369;DHT22;18004;48.416;10.066;2024-02-21T14:53:21;11.40;20.60
31369;DHT22;18004;48.416;10.066;2024-02-21T14:55:53;11.40;20.80
31369;DHT22;18004;48.416;10.066;2024-02-21T14:58:19;11.40;23.10
31369;DHT22;18004;48.416;10.066;2024-02-21T15:00:45;11.40;23.50
31369;DHT22;18004;48.416;10.066;2024-02-21T15:03:13;11.40;23.80
31369;DHT22;18004;48.416;10.066;2024-02-21T15:05:41;11.30;23.10
31369;DHT22;18004;48.416;10.066;2024-02-21T15:08:07;11.30;22.50
31369;DHT22;18004;48.416;10.066;2024-02-21T15:10:35;11.30;22.50
31369;DHT22;18004;48.416;10.066;2024-02-21T15:13:02;11.30;22.80
31369;DHT22;18004;48.416;10.066;2024-02-21T15:15:28;11.20;22.80
31369;DHT22;18004;48.416;10.066;2024-02-21T15:17:54;11.20;23.80
31369;DHT22;18004;48.416;10.066;2024-02-21T15:20:20;11.20;22.30
31369;DHT22;18004;48.416;10.066;2024-02-21T15:22:49;11.20;23.20
31369;DHT22;18004;48.416;10.066;2024-02-21T15:25:15;11.20;24.40
31369;DHT22;18004;48.416;10.066;2024-02-21T15:27:44;11.20;26.70
31369;DHT22;18004;48.416;10.066;2024-02-21T15:30:11;11.20;27.00
31369;DHT22;18004;48.416;10.066;2024-02-21T15:32:38;11.20;27.10
31369;DHT22;18004;48.416;10.066;2024-02-21T15:35:05;11.10;22.50